sensor_id;sensor_type;location;lat;lon;timestamp;temperature;humidity
13369;DHT22;6753;52.520;13.450;2023-04-02T00:00:19;20.70;59.70
13369;DHT22;6753;52.520;13.450;2023-04-02T00:00:30;18.70;57.00
13369;DHT22;6753;52.520;13.450;2023-04-02T00:01:04;18.70;56.90
13369;DHT22;6753;52.520;13.450;2023-04-02T00:01:24;18.70;56.90
13369;DHT22;6753;52.520;13.450;2023-04-02T00:01:37;18.70;57.20
13369;DHT22;6753;52.520;13.450;2023-04-02T00:01:48;19.60;58.70
13369;DHT22;6753;52.520;13.450;2023-04-02T00:02:30;18.60;57.20
13369;DHT22;6753;52.520;13.450;2023-04-02T00:02:55;18.70;57.10
13369;DHT22;6753;52.520;13.450;2023-04-02T00:03:10;18.70;57.10
13369;DHT22;6753;52.520;13.450;2023-04-02T00:03:20;18.60;57.00
13369;DHT22;6753;52.520;13.450;2023-04-02T00:04:02;18.70;57.10
13369;DHT22;6753;52.520;13.450;2023-04-02T00:04:17;18.70;57.30
13369;DHT22;6753;52.520;13.450;2023-04-02T00:04:39;18.60;56.70
13369;DHT22;6753;52.520;13.450;2023-04-02T00:05:26;18.70;57.40
13369;DHT22;6753;52.520;13.450;2023-04-02T00:05:42;18.70;57.80
13369;DHT22;6753;52.520;13.450;2023-04-02T00:06:31;18.70;57.00
13369;DHT22;6753;52.520;13.450;2023-04-02T00:06:43;18.70;57.50
13369;DHT22;6753;52.520;13.450;2023-04-02T00:07:16;18.70;57.30
13369;DHT22;6753;52.520;13.450;2023-04-02T00:07:30;18.70;57.50
13369;DHT22;6753;52.520;13.450;2023-04-02T00:07:43;18.70;57.60
13369;DHT22;6753;52.520;13.450;2023-04-02T00:07:59;20.30;60.00
13369;DHT22;6753;52.520;13.450;2023-04-02T00:08:22;18.70;57.70
13369;DHT22;6753;52.520;13.450;2023-04-02T00:08:37;21.50;60.80
13369;DHT22;6753;52.520;13.450;2023-04-02T00:08:48;18.70;57.90
13369;DHT22;6753;52.520;13.450;2023-04-02T00:09:00;18.70;57.90
13369;DHT22;6753;52.520;13.450;2023-04-02T00:09:21;18.70;57.70
13369;DHT22;6753;52.520;13.450;2023-04-02T00:09:36;18.70;57.80
13369;DHT22;6753;52.520;13.450;2023-04-02T00:09:47;18.70;57.90
13369;DHT22;6753;52.520;13.450;2023-04-02T00:09:58;20.40;60.20
13369;DHT22;6753;52.520;13.450;2023-04-02T00:10:28;18.70;57.70
13369;DHT22;6753;52.520;13.450;2023-04-02T00:10:47;18.70;57.70
13369;DHT22;6753;52.520;13.450;2023-04-02T00:10:59;18.70;57.70
13369;DHT22;6753;52.520;13.450;2023-04-02T00:11:10;18.70;57.80
13369;DHT22;6753;52.520;13.450;2023-04-02T00:11:27;18.70;57.70
13369;DHT22;6753;52.520;13.450;2023-04-02T00:11:41;18.70;57.70
13369;DHT22;6753;52.520;13.450;2023-04-02T00:11:53;18.70;57.80
13369;DHT22;6753;52.520;13.450;2023-04-02T00:12:17;18.70;57.80
13369;DHT22;6753;52.520;13.450;2023-04-02T00:12:28;18.70;57.90
13369;DHT22;6753;52.520;13.450;2023-04-02T00:12:39;18.70;57.80
13369;DHT22;6753;52.520;13.450;2023-04-02T00:12:59;21.50;60.80
13369;DHT22;6753;52.520;13.450;2023-04-02T00:13:21;18.70;58.40
13369;DHT22;6753;52.520;13.450;2023-04-02T00:13:36;18.70;58.00
13369;DHT22;6753;52.520;13.450;2023-04-02T00:13:51;18.70;57.90
13369;DHT22;6753;52.520;13.450;2023-04-02T00:14:03;18.80;58.10
13369;DHT22;6753;52.520;13.450;2023-04-02T00:14:17;18.80;58.20
13369;DHT22;6753;52.520;13.450;2023-04-02T00:14:32;18.70;58.20
13369;DHT22;6753;52.520;13.450;2023-04-02T00:14:49;18.70;58.20
13369;DHT22;6753;52.520;13.450;2023-04-02T00:15:00;18.80;58.40
13369;DHT22;6753;52.520;13.450;2023-04-02T00:15:12;18.80;58.30
13369;DHT22;6753;52.520;13.450;2023-04-02T00:15:23;18.70;58.10
13369;DHT22;6753;52.520;13.450;2023-04-02T00:15:38;18.80;58.30
13369;DHT22;6753;52.520;13.450;2023-04-02T00:15:53;18.80;58.30
13369;DHT22;6753;52.520;13.450;2023-04-02T00:16:16;18.80;58.40
13369;DHT22;6753;52.520;13.450;2023-04-02T00:16:28;18.80;58.40
13369;DHT22;6753;52.520;13.450;2023-04-02T00:16:40;19.80;60.00
13369;DHT22;6753;52.520;13.450;2023-04-02T00:16:52;18.80;58.40
13369;DHT22;6753;52.520;13.450;2023-04-02T00:17:04;18.80;58.60
13369;DHT22;6753;52.520;13.450;2023-04-02T00:17:15;18.80;58.60
13369;DHT22;6753;52.520;13.450;2023-04-02T00:17:26;18.80;58.60
13369;DHT22;6753;52.520;13.450;2023-04-02T00:17:37;18.80;58.50
13369;DHT22;6753;52.520;13.450;2023-04-02T00:17:48;20.40;60.30
13369;DHT22;6753;52.520;13.450;2023-04-02T00:17:59;18.80;58.60
13369;DHT22;6753;52.520;13.450;2023-04-02T00:18:14;18.80;58.60
13369;DHT22;6753;52.520;13.450;2023-04-02T00:18:26;18.80;58.60
13369;DHT22;6753;52.520;13.450;2023-04-02T00:18:41;19.30;59.30
13369;DHT22;6753;52.520;13.450;2023-04-02T00:18:57;18.90;58.20
13369;DHT22;6753;52.520;13.450;2023-04-02T00:19:15;20.20;60.10
13369;DHT22;6753;52.520;13.450;2023-04-02T00:19:30;18.80;58.20
13369;DHT22;6753;52.520;13.450;2023-04-02T00:19:47;20.60;60.30
13369;DHT22;6753;52.520;13.450;2023-04-02T00:20:02;18.80;58.20
13369;DHT22;6753;52.520;13.450;2023-04-02T00:20:16;19.10;58.70
13369;DHT22;6753;52.520;13.450;2023-04-02T00:20:32;18.90;58.40
13369;DHT22;6753;52.520;13.450;2023-04-02T00:20:49;18.90;58.40
13369;DHT22;6753;52.520;13.450;2023-04-02T00:21:09;18.80;58.30
13369;DHT22;6753;52.520;13.450;2023-04-02T00:21:22;18.90;58.60
13369;DHT22;6753;52.520;13.450;2023-04-02T00:21:36;18.90;58.50
13369;DHT22;6753;52.520;13.450;2023-04-02T00:21:51;18.90;58.50
13369;DHT22;6753;52.520;13.450;2023-04-02T00:22:05;18.90;58.80
13369;DHT22;6753;52.520;13.450;2023-04-02T00:22:20;18.90;58.80
13369;DHT22;6753;52.520;13.450;2023-04-02T00:22:31;20.40;60.20
13369;DHT22;6753;52.520;13.450;2023-04-02T00:22:44;18.90;58.60
13369;DHT22;6753;52.520;13.450;2023-04-02T00:22:55;20.90;60.50
13369;DHT22;6753;52.520;13.450;2023-04-02T00:23:10;18.90;58.30
13369;DHT22;6753;52.520;13.450;2023-04-02T00:23:21;18.90;58.40
13369;DHT22;6753;52.520;13.450;2023-04-02T00:23:35;18.90;59.00
13369;DHT22;6753;52.520;13.450;2023-04-02T00:23:46;18.80;58.40
13369;DHT22;6753;52.520;13.450;2023-04-02T00:23:59;18.90;58.40
13369;DHT22;6753;52.520;13.450;2023-04-02T00:24:14;20.50;60.30
13369;DHT22;6753;52.520;13.450;2023-04-02T00:24:25;18.80;58.40
13369;DHT22;6753;52.520;13.450;2023-04-02T00:24:38;18.90;58.40
13369;DHT22;6753;52.520;13.450;2023-04-02T00:24:50;18.80;58.60
13369;DHT22;6753;52.520;13.450;2023-04-02T00:25:12;18.90;58.70
13369;DHT22;6753;52.520;13.450;2023-04-02T00:25:25;18.90;58.70
13369;DHT22;6753;52.520;13.450;2023-04-02T00:25:38;18.80;58.50
13369;DHT22;6753;52.520;13.450;2023-04-02T00:25:52;19.50;59.60
13369;DHT22;6753;52.520;13.450;2023-04-02T00:26:05;18.90;58.80
13369;DHT22;6753;52.520;13.450;2023-04-02T00:26:21;18.80;58.60
13369;DHT22;6753;52.520;13.450;2023-04-02T00:26:36;18.90;58.80
13369;DHT22;6753;52.520;13.450;2023-04-02T00:26:48;18.90;58.80
13369;DHT22;6753;52.520;13.450;2023-04-02T00:26:59;20.40;60.40
13369;DHT22;6753;52.520;13.450;2023-04-02T00:27:11;18.90;58.80
13369;DHT22;6753;52.520;13.450;2023-04-02T00:27:22;20.20;60.30
13369;DHT22;6753;52.520;13.450;2023-04-02T00:27:33;20.70;60.70
13369;DHT22;6753;52.520;13.450;2023-04-02T00:27:45;19.10;58.80
13369;DHT22;6753;52.520;13.450;2023-04-02T00:27:56;18.90;58.50
13369;DHT22;6753;52.520;13.450;2023-04-02T00:28:10;18.90;58.50
13369;DHT22;6753;52.520;13.450;2023-04-02T00:28:22;18.80;58.50
13369;DHT22;6753;52.520;13.450;2023-04-02T00:28:34;18.80;58.60
13369;DHT22;6753;52.520;13.450;2023-04-02T00:28:45;18.80;58.60
13369;DHT22;6753;52.520;13.450;2023-04-02T00:28:55;18.80;58.70
13369;DHT22;6753;52.520;13.450;2023-04-02T00:29:08;18.80;58.80
13369;DHT22;6753;52.520;13.450;2023-04-02T00:29:20;18.90;59.00
13369;DHT22;6753;52.520;13.450;2023-04-02T00:29:32;18.90;58.70
13369;DHT22;6753;52.520;13.450;2023-04-02T00:29:46;18.80;58.50
13369;DHT22;6753;52.520;13.450;2023-04-02T00:29:58;20.60;60.50
13369;DHT22;6753;52.520;13.450;2023-04-02T00:30:11;18.90;58.70
13369;DHT22;6753;52.520;13.450;2023-04-02T00:30:22;18.90;58.80
13369;DHT22;6753;52.520;13.450;2023-04-02T00:30:34;18.90;58.70
13369;DHT22;6753;52.520;13.450;2023-04-02T00:30:47;18.90;58.80
13369;DHT22;6753;52.520;13.450;2023-04-02T00:30:59;18.80;58.50
13369;DHT22;6753;52.520;13.450;2023-04-02T00:31:11;20.80;60.60
13369;DHT22;6753;52.520;13.450;2023-04-02T00:31:22;18.90;58.70
13369;DHT22;6753;52.520;13.450;2023-04-02T00:31:37;18.90;58.90
13369;DHT22;6753;52.520;13.450;2023-04-02T00:31:51;18.80;58.80
13369;DHT22;6753;52.520;13.450;2023-04-02T00:32:02;18.90;59.20
13369;DHT22;6753;52.520;13.450;2023-04-02T00:32:19;18.90;59.20
13369;DHT22;6753;52.520;13.450;2023-04-02T00:32:32;18.90;59.10
13369;DHT22;6753;52.520;13.450;2023-04-02T00:32:45;18.90;59.10
13369;DHT22;6753;52.520;13.450;2023-04-02T00:32:56;18.90;59.20
13369;DHT22;6753;52.520;13.450;2023-04-02T00:33:14;18.90;59.30
13369;DHT22;6753;52.520;13.450;2023-04-02T00:33:29;18.90;59.40
13369;DHT22;6753;52.520;13.450;2023-04-02T00:33:41;18.90;59.30
13369;DHT22;6753;52.520;13.450;2023-04-02T00:33:53;18.90;59.30
13369;DHT22;6753;52.520;13.450;2023-04-02T00:34:07;18.90;59.40
13369;DHT22;6753;52.520;13.450;2023-04-02T00:34:20;18.90;59.40
13369;DHT22;6753;52.520;13.450;2023-04-02T00:34:35;18.90;59.40
13369;DHT22;6753;52.520;13.450;2023-04-02T00:34:47;18.90;59.40
13369;DHT22;6753;52.520;13.450;2023-04-02T00:34:58;18.90;59.30
13369;DHT22;6753;52.520;13.450;2023-04-02T00:35:11;21.00;61.10
13369;DHT22;6753;52.520;13.450;2023-04-02T00:35:26;18.90;59.30
13369;DHT22;6753;52.520;13.450;2023-04-02T00:35:38;18.90;59.30
13369;DHT22;6753;52.520;13.450;2023-04-02T00:35:49;18.90;59.40
13369;DHT22;6753;52.520;13.450;2023-04-02T00:36:05;18.90;59.40
13369;DHT22;6753;52.520;13.450;2023-04-02T00:36:18;18.90;60.00
13369;DHT22;6753;52.520;13.450;2023-04-02T00:36:30;18.90;59.40
13369;DHT22;6753;52.520;13.450;2023-04-02T00:36:43;21.90;61.70
13369;DHT22;6753;52.520;13.450;2023-04-02T00:36:56;18.90;59.40
13369;DHT22;6753;52.520;13.450;2023-04-02T00:37:15;18.90;59.40
13369;DHT22;6753;52.520;13.450;2023-04-02T00:37:33;18.90;59.30
13369;DHT22;6753;52.520;13.450;2023-04-02T00:37:48;18.90;59.10
13369;DHT22;6753;52.520;13.450;2023-04-02T00:37:59;18.90;59.10
13369;DHT22;6753;52.520;13.450;2023-04-02T00:38:18;18.90;59.20
13369;DHT22;6753;52.520;13.450;2023-04-02T00:38:31;18.90;59.40
13369;DHT22;6753;52.520;13.450;2023-04-02T00:38:43;18.90;59.40
13369;DHT22;6753;52.520;13.450;2023-04-02T00:38:57;18.90;59.40
13369;DHT22;6753;52.520;13.450;2023-04-02T00:39:14;18.90;59.40
13369;DHT22;6753;52.520;13.450;2023-04-02T00:39:28;18.90;59.40
13369;DHT22;6753;52.520;13.450;2023-04-02T00:39:40;18.90;59.30
13369;DHT22;6753;52.520;13.450;2023-04-02T00:39:54;18.90;59.20
13369;DHT22;6753;52.520;13.450;2023-04-02T00:40:15;18.90;59.20
13369;DHT22;6753;52.520;13.450;2023-04-02T00:40:30;20.10;60.40
13369;DHT22;6753;52.520;13.450;2023-04-02T00:40:42;19.60;60.10
13369;DHT22;6753;52.520;13.450;2023-04-02T00:40:55;18.90;59.30
13369;DHT22;6753;52.520;13.450;2023-04-02T00:41:06;18.90;59.40
13369;DHT22;6753;52.520;13.450;2023-04-02T00:41:21;18.90;59.30
13369;DHT22;6753;52.520;13.450;2023-04-02T00:41:36;18.90;59.20
13369;DHT22;6753;52.520;13.450;2023-04-02T00:41:48;18.90;59.50
13369;DHT22;6753;52.520;13.450;2023-04-02T00:42:14;18.90;59.60
13369;DHT22;6753;52.520;13.450;2023-04-02T00:42:29;18.90;59.60
13369;DHT22;6753;52.520;13.450;2023-04-02T00:42:40;19.90;60.40
13369;DHT22;6753;52.520;13.450;2023-04-02T00:42:53;18.90;60.00
13369;DHT22;6753;52.520;13.450;2023-04-02T00:43:05;19.00;59.60
13369;DHT22;6753;52.520;13.450;2023-04-02T00:43:17;18.90;59.50
13369;DHT22;6753;52.520;13.450;2023-04-02T00:43:32;18.90;59.50
13369;DHT22;6753;52.520;13.450;2023-04-02T00:43:47;18.90;59.40
13369;DHT22;6753;52.520;13.450;2023-04-02T00:44:00;18.90;59.40
13369;DHT22;6753;52.520;13.450;2023-04-02T00:44:13;18.90;59.40
13369;DHT22;6753;52.520;13.450;2023-04-02T00:44:27;18.90;60.00
13369;DHT22;6753;52.520;13.450;2023-04-02T00:44:44;18.90;59.40
13369;DHT22;6753;52.520;13.450;2023-04-02T00:44:55;18.90;59.40
13369;DHT22;6753;52.520;13.450;2023-04-02T00:45:16;18.90;59.40
13369;DHT22;6753;52.520;13.450;2023-04-02T00:45:31;18.90;59.40
13369;DHT22;6753;52.520;13.450;2023-04-02T00:45:44;18.90;59.50
13369;DHT22;6753;52.520;13.450;2023-04-02T00:46:02;21.50;61.50
13369;DHT22;6753;52.520;13.450;2023-04-02T00:46:15;18.90;59.50
13369;DHT22;6753;52.520;13.450;2023-04-02T00:46:29;18.90;59.60
13369;DHT22;6753;52.520;13.450;2023-04-02T00:46:42;20.40;60.80
13369;DHT22;6753;52.520;13.450;2023-04-02T00:47:03;20.00;60.50
13369;DHT22;6753;52.520;13.450;2023-04-02T00:47:20;19.30;60.10
13369;DHT22;6753;52.520;13.450;2023-04-02T00:47:33;18.90;59.50
13369;DHT22;6753;52.520;13.450;2023-04-02T00:47:44;18.90;59.50
13369;DHT22;6753;52.520;13.450;2023-04-02T00:47:56;18.90;59.50
13369;DHT22;6753;52.520;13.450;2023-04-02T00:48:23;18.90;59.50
13369;DHT22;6753;52.520;13.450;2023-04-02T00:48:41;18.90;59.60
13369;DHT22;6753;52.520;13.450;2023-04-02T00:48:58;18.90;59.60
13369;DHT22;6753;52.520;13.450;2023-04-02T00:49:17;18.90;59.60
13369;DHT22;6753;52.520;13.450;2023-04-02T00:49:34;18.90;59.60
13369;DHT22;6753;52.520;13.450;2023-04-02T00:49:46;18.90;59.70
13369;DHT22;6753;52.520;13.450;2023-04-02T00:50:05;18.90;59.70
13369;DHT22;6753;52.520;13.450;2023-04-02T00:50:22;18.90;59.80
13369;DHT22;6753;52.520;13.450;2023-04-02T00:50:38;18.90;59.70
13369;DHT22;6753;52.520;13.450;2023-04-02T00:50:52;18.90;59.70
13369;DHT22;6753;52.520;13.450;2023-04-02T00:51:11;18.90;59.60
13369;DHT22;6753;52.520;13.450;2023-04-02T00:51:25;18.90;59.60
13369;DHT22;6753;52.520;13.450;2023-04-02T00:51:43;20.10;60.60
13369;DHT22;6753;52.520;13.450;2023-04-02T00:51:57;18.90;59.70
13369;DHT22;6753;52.520;13.450;2023-04-02T00:52:10;18.90;59.70
13369;DHT22;6753;52.520;13.450;2023-04-02T00:52:24;18.90;60.00
13369;DHT22;6753;52.520;13.450;2023-04-02T00:52:37;19.10;60.10
13369;DHT22;6753;52.520;13.450;2023-04-02T00:52:51;18.90;59.80
13369;DHT22;6753;52.520;13.450;2023-04-02T00:53:08;18.90;59.80
13369;DHT22;6753;52.520;13.450;2023-04-02T00:53:23;18.90;59.80
13369;DHT22;6753;52.520;13.450;2023-04-02T00:53:35;18.90;59.80
13369;DHT22;6753;52.520;13.450;2023-04-02T00:53:47;18.30;58.90
13369;DHT22;6753;52.520;13.450;2023-04-02T00:54:01;18.90;59.90
13369;DHT22;6753;52.520;13.450;2023-04-02T00:54:12;18.90;59.80
13369;DHT22;6753;52.520;13.450;2023-04-02T00:54:29;18.90;59.90
13369;DHT22;6753;52.520;13.450;2023-04-02T00:54:46;18.90;60.00
13369;DHT22;6753;52.520;13.450;2023-04-02T00:55:02;18.90;60.00
13369;DHT22;6753;52.520;13.450;2023-04-02T00:55:16;18.90;59.40
13369;DHT22;6753;52.520;13.450;2023-04-02T00:55:33;21.90;61.80
13369;DHT22;6753;52.520;13.450;2023-04-02T00:55:45;18.90;59.30
13369;DHT22;6753;52.520;13.450;2023-04-02T00:55:57;19.00;59.40
13369;DHT22;6753;52.520;13.450;2023-04-02T00:56:14;18.90;59.00
13369;DHT22;6753;52.520;13.450;2023-04-02T00:56:30;20.10;60.40
13369;DHT22;6753;52.520;13.450;2023-04-02T00:56:43;20.80;61.00
13369;DHT22;6753;52.520;13.450;2023-04-02T00:56:54;18.90;59.70
13369;DHT22;6753;52.520;13.450;2023-04-02T00:57:13;18.90;59.70
13369;DHT22;6753;52.520;13.450;2023-04-02T00:57:26;18.90;59.70
13369;DHT22;6753;52.520;13.450;2023-04-02T00:57:40;18.90;59.80
13369;DHT22;6753;52.520;13.450;2023-04-02T00:57:52;18.90;59.80
13369;DHT22;6753;52.520;13.450;2023-04-02T00:58:12;18.90;59.80
13369;DHT22;6753;52.520;13.450;2023-04-02T00:58:27;18.90;60.00
13369;DHT22;6753;52.520;13.450;2023-04-02T00:58:39;18.90;59.90
13369;DHT22;6753;52.520;13.450;2023-04-02T00:58:51;18.90;59.90
13369;DHT22;6753;52.520;13.450;2023-04-02T00:59:03;18.90;60.00
13369;DHT22;6753;52.520;13.450;2023-04-02T00:59:24;18.90;59.90
13369;DHT22;6753;52.520;13.450;2023-04-02T00:59:46;18.90;60.00
13369;DHT22;6753;52.520;13.450;2023-04-02T01:00:00;18.90;60.00
13369;DHT22;6753;52.520;13.450;2023-04-02T01:00:19;18.90;60.00
13369;DHT22;6753;52.520;13.450;2023-04-02T01:00:33;18.90;60.00
13369;DHT22;6753;52.520;13.450;2023-04-02T01:00:48;18.90;60.10
13369;DHT22;6753;52.520;13.450;2023-04-02T01:01:00;19.00;60.10
13369;DHT22;6753;52.520;13.450;2023-04-02T01:01:15;19.00;60.10
13369;DHT22;6753;52.520;13.450;2023-04-02T01:01:33;19.00;60.10
13369;DHT22;6753;52.520;13.450;2023-04-02T01:01:49;18.90;60.10
13369;DHT22;6753;52.520;13.450;2023-04-02T01:02:20;19.00;60.00
13369;DHT22;6753;52.520;13.450;2023-04-02T01:02:35;18.90;60.00
13369;DHT22;6753;52.520;13.450;2023-04-02T01:03:29;18.90;59.90
13369;DHT22;6753;52.520;13.450;2023-04-02T01:03:52;18.90;60.00
13369;DHT22;6753;52.520;13.450;2023-04-02T01:04:26;20.50;61.20
13369;DHT22;6753;52.520;13.450;2023-04-02T01:04:38;18.90;59.80
13369;DHT22;6753;52.520;13.450;2023-04-02T01:04:51;18.90;59.90
13369;DHT22;6753;52.520;13.450;2023-04-02T01:05:20;18.90;60.00
13369;DHT22;6753;52.520;13.450;2023-04-02T01:05:33;20.00;60.80
13369;DHT22;6753;52.520;13.450;2023-04-02T01:05:46;20.60;61.10
13369;DHT22;6753;52.520;13.450;2023-04-02T01:06:00;18.80;60.00
13369;DHT22;6753;52.520;13.450;2023-04-02T01:06:14;18.90;60.20
13369;DHT22;6753;52.520;13.450;2023-04-02T01:06:28;18.90;60.20
13369;DHT22;6753;52.520;13.450;2023-04-02T01:06:41;18.90;60.20
13369;DHT22;6753;52.520;13.450;2023-04-02T01:06:53;18.90;60.20
13369;DHT22;6753;52.520;13.450;2023-04-02T01:07:06;18.90;60.20
13369;DHT22;6753;52.520;13.450;2023-04-02T01:07:22;19.00;60.30
13369;DHT22;6753;52.520;13.450;2023-04-02T01:07:48;18.90;60.20
13369;DHT22;6753;52.520;13.450;2023-04-02T01:08:06;18.90;60.20
13369;DHT22;6753;52.520;13.450;2023-04-02T01:08:23;18.90;60.20
13369;DHT22;6753;52.520;13.450;2023-04-02T01:08:56;18.90;60.20
13369;DHT22;6753;52.520;13.450;2023-04-02T01:09:22;19.00;60.30
13369;DHT22;6753;52.520;13.450;2023-04-02T01:09:58;18.90;60.30
13369;DHT22;6753;52.520;13.450;2023-04-02T01:10:24;19.00;60.40
13369;DHT22;6753;52.520;13.450;2023-04-02T01:10:53;19.00;60.30
13369;DHT22;6753;52.520;13.450;2023-04-02T01:11:18;19.00;60.40
13369;DHT22;6753;52.520;13.450;2023-04-02T01:11:52;18.90;60.40
13369;DHT22;6753;52.520;13.450;2023-04-02T01:12:30;18.90;60.40
13369;DHT22;6753;52.520;13.450;2023-04-02T01:12:53;18.90;60.30
13369;DHT22;6753;52.520;13.450;2023-04-02T01:13:15;19.00;60.30
13369;DHT22;6753;52.520;13.450;2023-04-02T01:13:32;18.90;60.20
13369;DHT22;6753;52.520;13.450;2023-04-02T01:13:54;18.90;60.30
13369;DHT22;6753;52.520;13.450;2023-04-02T01:14:13;20.50;61.40
13369;DHT22;6753;52.520;13.450;2023-04-02T01:14:36;18.90;60.40
13369;DHT22;6753;52.520;13.450;2023-04-02T01:14:55;19.00;60.50
13369;DHT22;6753;52.520;13.450;2023-04-02T01:15:15;18.90;60.10
13369;DHT22;6753;52.520;13.450;2023-04-02T01:15:29;18.90;60.30
13369;DHT22;6753;52.520;13.450;2023-04-02T01:15:49;18.90;60.50
13369;DHT22;6753;52.520;13.450;2023-04-02T01:16:06;18.90;60.40
13369;DHT22;6753;52.520;13.450;2023-04-02T01:16:27;18.90;60.50
13369;DHT22;6753;52.520;13.450;2023-04-02T01:16:51;18.90;60.40
13369;DHT22;6753;52.520;13.450;2023-04-02T01:17:15;18.90;60.50
13369;DHT22;6753;52.520;13.450;2023-04-02T01:17:38;18.90;60.50
13369;DHT22;6753;52.520;13.450;2023-04-02T01:18:05;18.90;60.20
13369;DHT22;6753;52.520;13.450;2023-04-02T01:18:34;18.90;60.50
13369;DHT22;6753;52.520;13.450;2023-04-02T01:18:51;18.90;60.60
13369;DHT22;6753;52.520;13.450;2023-04-02T01:19:14;19.00;60.60
13369;DHT22;6753;52.520;13.450;2023-04-02T01:19:48;21.20;62.10
13369;DHT22;6753;52.520;13.450;2023-04-02T01:21:17;19.00;60.60
13369;DHT22;6753;52.520;13.450;2023-04-02T01:21:49;19.00;60.60
13369;DHT22;6753;52.520;13.450;2023-04-02T01:22:06;19.00;60.60
13369;DHT22;6753;52.520;13.450;2023-04-02T01:22:22;19.00;60.50
13369;DHT22;6753;52.520;13.450;2023-04-02T01:22:46;19.20;60.70
13369;DHT22;6753;52.520;13.450;2023-04-02T01:23:02;19.00;60.50
13369;DHT22;6753;52.520;13.450;2023-04-02T01:23:21;19.00;60.50
13369;DHT22;6753;52.520;13.450;2023-04-02T01:23:37;19.50;60.80
13369;DHT22;6753;52.520;13.450;2023-04-02T01:24:00;19.00;60.50
13369;DHT22;6753;52.520;13.450;2023-04-02T01:24:12;19.00;60.50
13369;DHT22;6753;52.520;13.450;2023-04-02T01:24:27;19.00;60.50
13369;DHT22;6753;52.520;13.450;2023-04-02T01:24:40;21.00;61.80
13369;DHT22;6753;52.520;13.450;2023-04-02T01:24:55;19.00;60.50
13369;DHT22;6753;52.520;13.450;2023-04-02T01:25:12;19.00;60.50
13369;DHT22;6753;52.520;13.450;2023-04-02T01:25:28;19.00;60.40
13369;DHT22;6753;52.520;13.450;2023-04-02T01:25:44;19.00;60.30
13369;DHT22;6753;52.520;13.450;2023-04-02T01:26:03;19.00;60.30
13369;DHT22;6753;52.520;13.450;2023-04-02T01:26:25;19.00;60.30
13369;DHT22;6753;52.520;13.450;2023-04-02T01:26:47;19.00;60.40
13369;DHT22;6753;52.520;13.450;2023-04-02T01:27:00;20.10;61.00
13369;DHT22;6753;52.520;13.450;2023-04-02T01:27:15;20.60;61.20
13369;DHT22;6753;52.520;13.450;2023-04-02T01:27:32;19.00;60.10
13369;DHT22;6753;52.520;13.450;2023-04-02T01:27:50;18.90;60.50
13369;DHT22;6753;52.520;13.450;2023-04-02T01:28:07;21.60;62.10
13369;DHT22;6753;52.520;13.450;2023-04-02T01:28:24;19.00;60.20
13369;DHT22;6753;52.520;13.450;2023-04-02T01:28:51;20.60;61.40
13369;DHT22;6753;52.520;13.450;2023-04-02T01:29:09;18.90;60.30
13369;DHT22;6753;52.520;13.450;2023-04-02T01:29:23;18.90;60.00
13369;DHT22;6753;52.520;13.450;2023-04-02T01:29:38;18.90;60.20
13369;DHT22;6753;52.520;13.450;2023-04-02T01:29:52;18.90;60.50
13369;DHT22;6753;52.520;13.450;2023-04-02T01:30:06;18.90;60.50
13369;DHT22;6753;52.520;13.450;2023-04-02T01:30:21;18.90;60.50
13369;DHT22;6753;52.520;13.450;2023-04-02T01:30:34;19.00;60.60
13369;DHT22;6753;52.520;13.450;2023-04-02T01:30:48;18.90;60.50
13369;DHT22;6753;52.520;13.450;2023-04-02T01:31:02;18.90;60.60
13369;DHT22;6753;52.520;13.450;2023-04-02T01:31:14;18.90;60.60
13369;DHT22;6753;52.520;13.450;2023-04-02T01:31:25;18.90;60.60
13369;DHT22;6753;52.520;13.450;2023-04-02T01:31:38;18.90;60.70
13369;DHT22;6753;52.520;13.450;2023-04-02T01:31:50;19.00;60.70
13369;DHT22;6753;52.520;13.450;2023-04-02T01:32:04;19.00;60.80
13369;DHT22;6753;52.520;13.450;2023-04-02T01:32:19;19.00;60.80
13369;DHT22;6753;52.520;13.450;2023-04-02T01:32:31;18.90;60.70
13369;DHT22;6753;52.520;13.450;2023-04-02T01:32:43;18.90;60.70
13369;DHT22;6753;52.520;13.450;2023-04-02T01:32:55;19.00;60.70
13369;DHT22;6753;52.520;13.450;2023-04-02T01:33:06;19.00;60.70
13369;DHT22;6753;52.520;13.450;2023-04-02T01:33:18;18.90;60.50
13369;DHT22;6753;52.520;13.450;2023-04-02T01:33:32;18.90;60.40
13369;DHT22;6753;52.520;13.450;2023-04-02T01:33:43;19.00;60.40
13369;DHT22;6753;52.520;13.450;2023-04-02T01:33:55;18.90;60.30
13369;DHT22;6753;52.520;13.450;2023-04-02T01:34:10;18.90;60.40
13369;DHT22;6753;52.520;13.450;2023-04-02T01:34:23;18.90;60.60
13369;DHT22;6753;52.520;13.450;2023-04-02T01:34:35;19.00;60.70
13369;DHT22;6753;52.520;13.450;2023-04-02T01:34:47;19.00;60.70
13369;DHT22;6753;52.520;13.450;2023-04-02T01:34:59;19.00;60.70
13369;DHT22;6753;52.520;13.450;2023-04-02T01:35:11;21.10;62.20
13369;DHT22;6753;52.520;13.450;2023-04-02T01:35:24;19.00;60.70
13369;DHT22;6753;52.520;13.450;2023-04-02T01:35:40;19.00;60.70
13369;DHT22;6753;52.520;13.450;2023-04-02T01:36:01;19.00;60.80
13369;DHT22;6753;52.520;13.450;2023-04-02T01:36:18;20.40;61.70
13369;DHT22;6753;52.520;13.450;2023-04-02T01:36:36;19.00;61.00
13369;DHT22;6753;52.520;13.450;2023-04-02T01:37:08;19.00;60.70
13369;DHT22;6753;52.520;13.450;2023-04-02T01:37:32;19.00;60.70
13369;DHT22;6753;52.520;13.450;2023-04-02T01:37:49;19.00;60.70
13369;DHT22;6753;52.520;13.450;2023-04-02T01:38:07;19.00;60.70
13369;DHT22;6753;52.520;13.450;2023-04-02T01:38:26;19.00;60.70
13369;DHT22;6753;52.520;13.450;2023-04-02T01:38:42;19.00;60.80
13369;DHT22;6753;52.520;13.450;2023-04-02T01:39:02;19.00;60.80
13369;DHT22;6753;52.520;13.450;2023-04-02T01:39:27;19.00;60.80
13369;DHT22;6753;52.520;13.450;2023-04-02T01:39:53;20.40;61.70
13369;DHT22;6753;52.520;13.450;2023-04-02T01:40:17;17.40;59.40
13369;DHT22;6753;52.520;13.450;2023-04-02T01:40:37;19.00;60.80
13369;DHT22;6753;52.520;13.450;2023-04-02T01:40:55;19.00;60.70
13369;DHT22;6753;52.520;13.450;2023-04-02T01:41:12;19.00;60.70
13369;DHT22;6753;52.520;13.450;2023-04-02T01:41:31;19.00;60.70
13369;DHT22;6753;52.520;13.450;2023-04-02T01:41:48;19.00;60.70
13369;DHT22;6753;52.520;13.450;2023-04-02T01:42:07;19.00;60.70
13369;DHT22;6753;52.520;13.450;2023-04-02T01:42:23;19.00;60.70
13369;DHT22;6753;52.520;13.450;2023-04-02T01:42:37;19.10;60.80
13369;DHT22;6753;52.520;13.450;2023-04-02T01:42:55;20.30;61.60
13369;DHT22;6753;52.520;13.450;2023-04-02T01:43:15;19.00;60.80
13369;DHT22;6753;52.520;13.450;2023-04-02T01:43:31;19.00;60.70
13369;DHT22;6753;52.520;13.450;2023-04-02T01:43:52;20.20;61.50
13369;DHT22;6753;52.520;13.450;2023-04-02T01:44:07;20.60;61.80
13369;DHT22;6753;52.520;13.450;2023-04-02T01:44:22;19.00;60.70
13369;DHT22;6753;52.520;13.450;2023-04-02T01:44:38;19.00;60.70